Home   Weather   Poland   Lublin   Past weeks
Flag for Poland

Past Weather in Lublin, Poland — May 2023

Currently: 55 °F. Clear. (Weather station: Rzeszow-Jasionka, Poland). See more current weather

May 2023 Weather in Lublin — Graph

°F

High & Low Weather Summary for May 2023

 TemperatureHumidityPressure
High75 °F (May 23, 4:00 pm)100% (May 3, 7:30 pm)30.39 "Hg (May 3, 7:30 pm)
Low30 °F (May 1, 5:30 am)29% (May 10, 5:00 pm)29.80 "Hg (May 15, 10:00 am)
Average56 °F69%30.12 "Hg
* Reported May 1 12:00 am — May 31 11:00 pm, Lublin. Weather by CustomWeather, © 2024

Note: Actual official high and low records may vary slightly from our data, if they occured in-between our weather recording intervals... More about our weather records

Lublin Weather History for May 1, 2023

Scroll right to see more
 ConditionsComfort  
Time TempWeatherWind HumidityBarometerVisibility
12:00 am
Mon, May 1
45 °FClear.8 mph53%30.12 "Hg10 mi
12:30 am45 °FClear.8 mph57%30.12 "Hg10 mi
1:00 am43 °FPassing clouds.6 mph57%30.12 "HgN/A
1:30 am37 °FPassing clouds.5 mph75%30.15 "HgN/A
3:00 am36 °FPassing clouds.10 mph81%30.15 "HgN/A
3:30 am36 °FPassing clouds.7 mph81%30.15 "HgN/A
4:00 am36 °FPassing clouds.6 mph81%30.15 "HgN/A
4:30 am34 °FPassing clouds.8 mph87%30.15 "HgN/A
5:00 am34 °FPassing clouds.3 mph87%30.15 "HgN/A
5:30 am30 °FPassing clouds.3 mph93%30.18 "HgN/A
6:00 am34 °FPassing clouds.3 mph87%30.18 "HgN/A
6:30 am36 °FSunny.1 mph87%30.18 "Hg10 mi
7:00 am39 °FSunny.2 mph81%30.18 "Hg10 mi
7:30 am43 °FSunny.1 mph71%30.18 "Hg10 mi
8:00 am45 °FPassing clouds.3 mph71%30.18 "HgN/A
8:30 am46 °FPassing clouds.5 mph62%30.18 "HgN/A
9:00 am50 °FPassing clouds.8 mph50%30.18 "HgN/A
9:30 am52 °FPassing clouds.9 mph41%30.18 "HgN/A
10:00 am54 °FPassing clouds.10 mph44%30.18 "HgN/A
10:30 am54 °FPassing clouds.12 mph44%30.18 "HgN/A
11:30 am55 °FPassing clouds.8 mph38%30.18 "HgN/A
12:00 pm57 °FPassing clouds.7 mph39%30.15 "HgN/A
12:30 pm57 °FSunny.7 mph41%30.15 "Hg10 mi
1:00 pm57 °FPassing clouds.8 mph41%30.15 "HgN/A
1:30 pm57 °FPassing clouds.7 mph41%30.15 "HgN/A
2:00 pm59 °FPassing clouds.8 mph42%30.15 "HgN/A
2:30 pm59 °FPassing clouds.8 mph42%30.12 "HgN/A
3:00 pm59 °FPassing clouds.10 mph36%30.12 "HgN/A
3:30 pm59 °FPassing clouds.12 mph39%30.12 "HgN/A
4:00 pm61 °FSunny.10 mph36%30.09 "Hg10 mi
4:30 pm61 °FPassing clouds.10 mph39%30.09 "HgN/A
5:00 pm61 °FSunny.12 mph39%30.09 "Hg10 mi
5:30 pm61 °FSunny.12 mph36%30.09 "Hg10 mi
7:00 pm59 °FSunny.9 mph42%30.07 "Hg10 mi
7:30 pm57 °FSunny.9 mph44%30.07 "Hg10 mi
8:00 pm55 °FClear.8 mph44%30.07 "Hg10 mi
8:30 pm55 °FPassing clouds.7 mph44%30.07 "HgN/A
9:00 pm54 °FClear.5 mph47%30.07 "Hg10 mi
10:00 pm50 °FClear.6 mph54%30.07 "Hg10 mi
10:30 pm48 °FClear.5 mph58%30.07 "Hg10 mi
11:00 pm48 °FClear.5 mph62%30.07 "Hg10 mi
11:30 pm48 °FClear.6 mph58%30.07 "Hg10 mi
Weather by CustomWeather, © 2024

See weather overview